createdAt,value
2018-05-31T00:00:26.149Z,19.70
2018-05-31T00:02:53.040Z,19.70
2018-05-31T00:05:19.193Z,19.70
2018-05-31T00:07:45.385Z,19.70
2018-05-31T00:10:11.542Z,19.70
2018-05-31T00:12:37.660Z,19.70
2018-05-31T00:15:03.762Z,19.80
2018-05-31T00:17:29.861Z,19.80
2018-05-31T00:19:56.702Z,19.80
2018-05-31T00:22:24.096Z,19.80
2018-05-31T00:24:50.188Z,19.70
2018-05-31T00:27:17.018Z,19.60
2018-05-31T00:29:43.867Z,19.60
2018-05-31T00:32:11.325Z,19.50
2018-05-31T00:34:37.907Z,19.40
2018-05-31T00:37:04.042Z,19.40
2018-05-31T00:39:30.125Z,19.50
2018-05-31T00:41:56.228Z,19.50
2018-05-31T00:44:22.702Z,19.30
2018-05-31T00:46:48.794Z,19.20
2018-05-31T00:49:15.622Z,19.30
2018-05-31T00:51:41.742Z,19.30
2018-05-31T00:54:07.833Z,19.30
2018-05-31T00:56:33.942Z,19.10
2018-05-31T00:59:00.047Z,19.00
2018-05-31T01:01:27.001Z,19.10
2018-05-31T01:03:53.838Z,19.20
2018-05-31T01:06:20.674Z,19.20
2018-05-31T01:08:47.515Z,19.20
2018-05-31T01:11:14.367Z,19.20
2018-05-31T01:13:41.217Z,19.20
2018-05-31T01:16:07.325Z,19.20
2018-05-31T01:18:34.152Z,19.20
2018-05-31T01:21:00.253Z,19.10
2018-05-31T01:23:27.104Z,19.10
2018-05-31T01:25:53.727Z,19.10
2018-05-31T01:28:19.815Z,19.00
2018-05-31T01:30:47.001Z,19.00
2018-05-31T01:33:13.102Z,19.00
2018-05-31T01:35:39.189Z,19.00
2018-05-31T01:38:17.872Z,19.00
2018-05-31T01:40:43.950Z,19.00
2018-05-31T01:43:10.042Z,19.00
2018-05-31T01:45:36.553Z,18.80
2018-05-31T01:48:02.649Z,18.80
2018-05-31T01:50:29.481Z,18.80
2018-05-31T01:52:55.577Z,18.80
2018-05-31T01:55:21.691Z,18.80
2018-05-31T01:57:47.823Z,18.90
2018-05-31T02:00:13.910Z,18.80
2018-05-31T02:02:40.014Z,18.70
2018-05-31T02:05:06.857Z,18.60
2018-05-31T02:07:33.691Z,18.50
2018-05-31T02:09:59.794Z,18.50
2018-05-31T02:12:25.890Z,18.60
2018-05-31T02:14:52.431Z,18.70
2018-05-31T02:17:18.514Z,18.50
2018-05-31T02:19:45.358Z,18.50
2018-05-31T02:22:12.190Z,18.50
2018-05-31T02:24:38.278Z,18.50
2018-05-31T02:27:04.386Z,18.60
2018-05-31T02:29:30.468Z,18.70
2018-05-31T02:31:57.341Z,18.60
2018-05-31T02:34:23.426Z,18.60
2018-05-31T02:36:49.560Z,18.70
2018-05-31T02:39:16.002Z,18.80
2018-05-31T02:41:42.849Z,18.80
2018-05-31T02:44:09.026Z,18.70
2018-05-31T02:46:35.129Z,18.80
2018-05-31T02:49:01.220Z,18.80
2018-05-31T02:51:27.314Z,18.80
2018-05-31T02:53:53.425Z,18.70
2018-05-31T02:56:19.514Z,18.70
2018-05-31T02:58:46.354Z,18.60
2018-05-31T03:01:13.181Z,18.60
2018-05-31T03:03:39.661Z,18.60
2018-05-31T03:06:05.749Z,18.50
2018-05-31T03:08:32.577Z,18.40
2018-05-31T03:10:58.732Z,18.30
2018-05-31T03:13:25.640Z,18.40
2018-05-31T03:15:51.881Z,18.40
2018-05-31T03:18:17.968Z,18.40
2018-05-31T03:20:44.058Z,18.40
2018-05-31T03:23:10.171Z,18.40
2018-05-31T03:25:36.281Z,18.40
2018-05-31T03:28:02.402Z,18.40
2018-05-31T03:30:28.493Z,18.20
2018-05-31T03:32:54.633Z,18.20
2018-05-31T03:35:21.070Z,18.20
2018-05-31T03:37:47.202Z,18.20
2018-05-31T03:40:13.313Z,18.10
2018-05-31T03:42:39.417Z,18.10
2018-05-31T03:45:05.543Z,18.10
2018-05-31T03:47:32.353Z,18.10
2018-05-31T03:49:58.444Z,18.10
2018-05-31T03:52:24.554Z,18.20
2018-05-31T03:54:50.674Z,18.20
2018-05-31T03:57:16.757Z,18.30
2018-05-31T03:59:43.585Z,18.30
2018-05-31T04:02:12.858Z,18.30
2018-05-31T04:04:39.085Z,18.20
2018-05-31T04:07:05.177Z,18.30
2018-05-31T04:09:31.286Z,18.40
2018-05-31T04:11:58.130Z,18.50
2018-05-31T04:14:24.969Z,18.50
2018-05-31T04:16:51.850Z,18.50
2018-05-31T04:19:17.949Z,18.50
2018-05-31T04:21:45.129Z,18.60
2018-05-31T04:24:11.278Z,18.60
2018-05-31T04:26:37.371Z,18.60
2018-05-31T04:29:03.494Z,18.60
2018-05-31T04:31:29.653Z,18.70
2018-05-31T04:33:55.766Z,18.60
2018-05-31T04:36:21.878Z,18.60
2018-05-31T04:38:48.021Z,18.60
2018-05-31T04:41:14.461Z,18.70
2018-05-31T04:43:41.094Z,18.80
2018-05-31T04:46:07.226Z,18.90
2018-05-31T04:48:33.309Z,19.00
2018-05-31T04:51:00.298Z,19.10
2018-05-31T04:53:26.408Z,19.10
2018-05-31T04:55:52.507Z,19.10
2018-05-31T04:58:19.353Z,19.20
2018-05-31T05:00:45.437Z,19.20
2018-05-31T05:03:11.543Z,19.30
2018-05-31T05:05:37.659Z,19.30
2018-05-31T05:08:03.789Z,19.30
2018-05-31T05:10:29.902Z,19.40
2018-05-31T05:12:56.006Z,19.50
2018-05-31T05:15:22.854Z,19.50
2018-05-31T05:17:49.057Z,19.50
2018-05-31T05:20:15.253Z,19.50
2018-05-31T05:22:41.349Z,19.60
2018-05-31T05:25:07.445Z,19.70
2018-05-31T05:27:34.289Z,19.80
2018-05-31T05:30:01.273Z,19.90
2018-05-31T05:32:27.441Z,19.90
2018-05-31T05:34:53.497Z,19.90
2018-05-31T05:37:19.770Z,20.00
2018-05-31T05:39:45.897Z,20.20
2018-05-31T05:42:11.990Z,20.60
2018-05-31T05:44:38.098Z,21.10
2018-05-31T05:47:05.027Z,22.10
2018-05-31T05:49:31.142Z,22.10
2018-05-31T05:51:57.245Z,22.50
2018-05-31T05:54:23.342Z,22.70
2018-05-31T05:56:49.579Z,22.80
2018-05-31T05:59:15.701Z,22.90
2018-05-31T06:01:41.818Z,23.10
2018-05-31T06:04:07.939Z,23.40
2018-05-31T06:06:37.010Z,23.80
2018-05-31T06:09:04.502Z,23.80
2018-05-31T06:11:30.609Z,24.00
2018-05-31T06:13:57.493Z,24.10
2018-05-31T06:16:24.334Z,24.10
2018-05-31T06:18:50.434Z,24.10
2018-05-31T06:21:17.290Z,24.30
2018-05-31T06:23:43.389Z,24.40
2018-05-31T06:26:10.365Z,24.30
2018-05-31T06:28:36.457Z,24.30
2018-05-31T06:31:02.563Z,24.20
2018-05-31T06:33:29.222Z,24.20
2018-05-31T06:35:55.437Z,24.30
2018-05-31T06:38:21.534Z,24.30
2018-05-31T06:40:47.640Z,24.40
2018-05-31T06:43:13.714Z,24.40
2018-05-31T06:45:39.805Z,24.50
2018-05-31T06:48:05.909Z,24.60
2018-05-31T06:50:32.013Z,24.70
2018-05-31T06:52:58.869Z,24.70
2018-05-31T06:55:24.971Z,24.60
2018-05-31T06:57:51.077Z,24.60
2018-05-31T07:00:17.169Z,24.70
2018-05-31T07:02:43.274Z,24.80
2018-05-31T07:05:10.136Z,25.00
2018-05-31T07:07:36.245Z,25.00
2018-05-31T07:10:03.105Z,25.20
2018-05-31T07:12:29.233Z,25.20
2018-05-31T07:14:55.342Z,25.40
2018-05-31T07:17:22.165Z,25.60
2018-05-31T07:19:48.298Z,25.60
2018-05-31T07:22:14.390Z,25.70
2018-05-31T07:24:40.482Z,25.90
2018-05-31T07:27:06.581Z,26.10
2018-05-31T07:29:33.414Z,26.20
2018-05-31T07:32:00.242Z,26.30
2018-05-31T07:34:26.347Z,26.30
2018-05-31T07:36:52.473Z,26.60
2018-05-31T07:39:18.580Z,26.70
2018-05-31T07:41:44.754Z,26.70
2018-05-31T07:44:10.835Z,26.70
2018-05-31T07:46:36.994Z,26.90
2018-05-31T07:49:03.086Z,27.00
2018-05-31T07:51:29.214Z,26.80
2018-05-31T07:53:55.315Z,26.90
2018-05-31T07:56:21.403Z,27.20
2018-05-31T07:58:47.505Z,27.40
2018-05-31T08:01:13.641Z,27.40
2018-05-31T08:03:39.758Z,27.50
2018-05-31T08:06:05.907Z,27.60
2018-05-31T08:08:32.014Z,27.60
2018-05-31T08:10:58.226Z,27.60
2018-05-31T08:13:24.349Z,27.60
2018-05-31T08:15:50.446Z,27.60
2018-05-31T08:18:17.286Z,27.50
2018-05-31T08:20:43.472Z,27.40
2018-05-31T08:23:09.529Z,27.20
2018-05-31T08:25:36.378Z,27.70
2018-05-31T08:28:03.237Z,28.00
2018-05-31T08:30:29.345Z,28.00
2018-05-31T08:32:56.337Z,27.60
2018-05-31T08:35:22.477Z,27.60
2018-05-31T08:37:48.609Z,27.80
2018-05-31T08:40:14.714Z,28.00
2018-05-31T08:42:40.814Z,28.20
2018-05-31T08:45:06.913Z,28.20
2018-05-31T08:47:32.993Z,28.30
2018-05-31T08:49:59.111Z,28.10
2018-05-31T08:52:25.211Z,28.10
2018-05-31T08:54:51.318Z,28.30
2018-05-31T08:57:18.171Z,28.90
2018-05-31T08:59:45.053Z,28.90
2018-05-31T09:02:11.267Z,28.90
2018-05-31T09:04:37.418Z,29.10
2018-05-31T09:07:03.501Z,29.20
2018-05-31T09:09:30.402Z,29.00
2018-05-31T09:11:56.491Z,29.00
2018-05-31T09:14:22.597Z,29.10
2018-05-31T09:16:49.454Z,29.10
2018-05-31T09:19:15.591Z,29.10
2018-05-31T09:21:41.698Z,28.60
2018-05-31T09:24:07.811Z,28.60
2018-05-31T09:26:34.701Z,29.10
2018-05-31T09:29:00.819Z,29.10
2018-05-31T09:31:26.899Z,29.30
2018-05-31T09:33:53.141Z,29.40
2018-05-31T09:36:20.048Z,29.50
2018-05-31T09:38:46.141Z,29.50
2018-05-31T09:41:12.259Z,29.40
2018-05-31T09:43:38.397Z,29.60
2018-05-31T09:46:04.498Z,29.80
2018-05-31T09:48:31.387Z,29.90
2018-05-31T09:50:57.507Z,29.90
2018-05-31T09:53:23.610Z,29.80
2018-05-31T09:55:49.771Z,29.60
2018-05-31T09:58:16.015Z,29.90
2018-05-31T10:00:42.094Z,29.80
2018-05-31T10:03:08.302Z,29.40
2018-05-31T10:05:34.427Z,29.50
2018-05-31T10:08:01.266Z,29.70
2018-05-31T10:10:28.146Z,29.90
2018-05-31T10:12:54.245Z,29.90
2018-05-31T10:15:20.346Z,29.90
2018-05-31T10:17:47.226Z,30.10
2018-05-31T10:20:13.540Z,30.10
2018-05-31T10:22:39.654Z,29.80
2018-05-31T10:25:06.497Z,30.30
2018-05-31T10:27:33.414Z,30.50
2018-05-31T10:29:59.506Z,30.50
2018-05-31T10:32:25.698Z,30.60
2018-05-31T10:34:52.560Z,30.70
2018-05-31T10:37:18.661Z,30.60
2018-05-31T10:39:45.522Z,30.40
2018-05-31T10:42:11.674Z,30.40
2018-05-31T10:44:37.787Z,30.50
2018-05-31T10:47:03.879Z,30.40
2018-05-31T10:49:30.170Z,30.50
2018-05-31T10:51:56.262Z,30.00
2018-05-31T10:54:22.342Z,30.20
2018-05-31T10:56:48.480Z,30.30
2018-05-31T10:59:14.618Z,30.30
2018-05-31T11:01:40.695Z,30.50
2018-05-31T11:04:06.794Z,30.40
2018-05-31T11:06:32.925Z,30.40
2018-05-31T11:08:59.037Z,30.60
2018-05-31T11:11:25.930Z,30.90
2018-05-31T11:13:52.085Z,30.90
2018-05-31T11:16:18.181Z,30.60
2018-05-31T11:18:44.691Z,30.80
2018-05-31T11:21:10.794Z,30.90
2018-05-31T11:23:37.637Z,30.90
2018-05-31T11:26:04.495Z,30.50
2018-05-31T11:28:30.602Z,30.50
2018-05-31T11:30:57.446Z,30.60
2018-05-31T11:33:24.347Z,30.70
2018-05-31T11:35:50.451Z,30.70
2018-05-31T11:38:16.558Z,30.60
2018-05-31T11:40:42.677Z,30.60
2018-05-31T11:43:08.770Z,30.60
2018-05-31T11:45:34.863Z,30.50
2018-05-31T11:48:00.954Z,30.80
2018-05-31T11:50:27.050Z,31.10
2018-05-31T11:52:53.168Z,30.70
2018-05-31T11:55:19.450Z,30.70
2018-05-31T11:57:45.685Z,31.00
2018-05-31T12:00:11.803Z,31.10
2018-05-31T12:02:37.887Z,31.20
2018-05-31T12:05:04.010Z,31.30
2018-05-31T12:07:30.101Z,31.20
2018-05-31T12:09:56.281Z,31.40
2018-05-31T12:12:23.130Z,31.40
2018-05-31T12:14:49.989Z,31.50
2018-05-31T12:17:16.161Z,31.50
2018-05-31T12:19:42.282Z,31.70
2018-05-31T12:22:08.386Z,31.80
2018-05-31T12:24:34.512Z,31.80
2018-05-31T12:27:01.065Z,31.70
2018-05-31T12:29:27.167Z,31.60
2018-05-31T12:31:54.006Z,31.40
2018-05-31T12:34:20.154Z,31.40
2018-05-31T12:36:46.253Z,31.60
2018-05-31T12:39:12.362Z,31.60
2018-05-31T12:41:39.653Z,31.70
2018-05-31T12:44:05.814Z,31.70
2018-05-31T12:46:31.911Z,31.90
2018-05-31T12:48:58.016Z,31.90
2018-05-31T12:51:24.123Z,31.70
2018-05-31T12:53:50.977Z,31.90
2018-05-31T12:56:17.089Z,31.90
2018-05-31T12:58:43.919Z,31.70
2018-05-31T13:01:10.781Z,31.80
2018-05-31T13:03:37.636Z,32.00
2018-05-31T13:06:04.042Z,31.90
2018-05-31T13:08:30.030Z,32.20
2018-05-31T13:10:56.137Z,32.10
2018-05-31T13:13:22.659Z,32.20
2018-05-31T13:15:48.769Z,31.90
2018-05-31T13:18:15.602Z,32.20
2018-05-31T13:20:42.443Z,32.30
2018-05-31T13:23:09.281Z,31.80
2018-05-31T13:25:36.947Z,31.80
2018-05-31T13:28:03.798Z,31.80
2018-05-31T13:30:30.637Z,31.80
2018-05-31T13:32:57.510Z,31.90
2018-05-31T13:35:23.621Z,31.90
2018-05-31T13:37:50.820Z,31.70
2018-05-31T13:40:16.935Z,31.70
2018-05-31T13:42:43.035Z,31.20
2018-05-31T13:45:09.142Z,31.10
2018-05-31T13:47:36.405Z,30.90
2018-05-31T13:50:03.258Z,30.90
2018-05-31T13:52:29.373Z,30.90
2018-05-31T13:54:56.214Z,30.70
2018-05-31T13:57:22.331Z,30.70
2018-05-31T13:59:49.347Z,30.70
2018-05-31T14:02:15.474Z,30.60
2018-05-31T14:04:41.593Z,30.40
2018-05-31T14:07:07.765Z,30.30
2018-05-31T14:09:34.654Z,30.00
2018-05-31T14:12:01.457Z,30.00
2018-05-31T14:14:28.442Z,30.00
2018-05-31T14:16:54.597Z,30.00
2018-05-31T14:19:20.731Z,30.20
2018-05-31T14:21:47.598Z,30.40
2018-05-31T14:24:14.458Z,30.40
2018-05-31T14:26:40.595Z,30.30
2018-05-31T14:29:06.725Z,30.30
2018-05-31T14:31:32.869Z,30.20
2018-05-31T14:33:59.121Z,30.10
2018-05-31T14:36:25.258Z,30.00
2018-05-31T14:38:51.364Z,29.90
2018-05-31T14:41:17.481Z,29.90
2018-05-31T14:43:43.599Z,29.90
2018-05-31T14:46:09.721Z,29.90
2018-05-31T14:48:35.945Z,29.80
2018-05-31T14:51:02.182Z,29.90
2018-05-31T14:53:28.286Z,30.00
2018-05-31T14:55:54.790Z,30.10
2018-05-31T14:58:21.661Z,30.20
2018-05-31T15:00:47.777Z,30.20
2018-05-31T15:03:14.615Z,30.20
2018-05-31T15:05:41.464Z,30.20
2018-05-31T15:08:07.639Z,30.20
2018-05-31T15:10:33.729Z,30.20
2018-05-31T15:12:59.829Z,30.00
2018-05-31T15:15:25.977Z,30.00
2018-05-31T15:17:52.076Z,29.80
2018-05-31T15:20:18.934Z,29.80
2018-05-31T15:22:45.769Z,29.80
2018-05-31T15:25:12.624Z,29.80
2018-05-31T15:27:39.459Z,29.80
2018-05-31T15:30:06.294Z,29.80
2018-05-31T15:32:33.268Z,29.90
2018-05-31T15:34:59.437Z,29.80
2018-05-31T15:37:25.541Z,29.90
2018-05-31T15:39:51.648Z,30.00
2018-05-31T15:42:17.754Z,30.00
2018-05-31T15:44:44.611Z,29.90
2018-05-31T15:47:10.761Z,29.90
2018-05-31T15:49:36.867Z,29.90
2018-05-31T15:52:03.115Z,29.80
2018-05-31T15:54:29.210Z,29.80
2018-05-31T15:56:56.046Z,29.70
2018-05-31T15:59:23.024Z,29.60
2018-05-31T16:01:49.148Z,29.60
2018-05-31T16:04:15.321Z,29.50
2018-05-31T16:06:41.445Z,29.60
2018-05-31T16:09:07.563Z,29.60
2018-05-31T16:11:33.681Z,29.70
2018-05-31T16:13:59.790Z,29.60
2018-05-31T16:16:25.901Z,29.60
2018-05-31T16:18:52.039Z,29.50
2018-05-31T16:21:18.784Z,29.50
2018-05-31T16:23:45.366Z,29.40
2018-05-31T16:26:11.475Z,29.30
2018-05-31T16:28:37.702Z,29.30
2018-05-31T16:31:03.827Z,29.30
2018-05-31T16:33:29.946Z,29.30
2018-05-31T16:35:56.049Z,29.30
2018-05-31T16:38:22.138Z,29.30
2018-05-31T16:40:49.454Z,29.20
2018-05-31T16:43:15.554Z,29.20
2018-05-31T16:45:41.657Z,29.20
2018-05-31T16:48:08.531Z,29.10
2018-05-31T16:50:34.681Z,29.10
2018-05-31T16:53:00.792Z,29.10
2018-05-31T16:55:27.121Z,29.00
2018-05-31T16:57:53.290Z,29.00
2018-05-31T17:00:20.150Z,28.90
2018-05-31T17:02:47.015Z,28.90
2018-05-31T17:05:13.261Z,28.90
2018-05-31T17:07:39.366Z,28.90
2018-05-31T17:10:05.487Z,28.80
2018-05-31T17:12:31.590Z,28.80
2018-05-31T17:14:57.741Z,28.80
2018-05-31T17:17:23.807Z,28.80
2018-05-31T17:19:50.222Z,28.80
2018-05-31T17:22:16.353Z,28.70
2018-05-31T17:24:42.504Z,28.70
2018-05-31T17:27:08.605Z,28.70
2018-05-31T17:29:34.714Z,28.70
2018-05-31T17:32:00.820Z,28.60
2018-05-31T17:34:27.030Z,28.60
2018-05-31T17:36:53.877Z,28.40
2018-05-31T17:39:20.714Z,28.30
2018-05-31T17:41:46.961Z,28.30
2018-05-31T17:44:13.848Z,28.10
2018-05-31T17:46:39.937Z,28.00
2018-05-31T17:49:06.047Z,27.90
2018-05-31T17:51:32.903Z,27.50
2018-05-31T17:53:59.755Z,27.40
2018-05-31T17:56:25.854Z,27.40
2018-05-31T17:58:51.964Z,27.30
2018-05-31T18:01:18.071Z,27.30
2018-05-31T18:03:44.326Z,27.30
2018-05-31T18:06:10.419Z,27.30
2018-05-31T18:08:36.503Z,27.30
2018-05-31T18:11:03.346Z,26.80
2018-05-31T18:13:30.231Z,26.60
2018-05-31T18:15:56.430Z,26.50
2018-05-31T18:18:22.518Z,25.80
2018-05-31T18:20:48.624Z,25.40
2018-05-31T18:23:14.731Z,25.20
2018-05-31T18:25:40.825Z,25.30
2018-05-31T18:28:06.942Z,25.10
2018-05-31T18:30:33.783Z,25.00
2018-05-31T18:33:00.622Z,24.90
2018-05-31T18:35:27.471Z,24.60
2018-05-31T18:37:54.346Z,24.40
2018-05-31T18:40:20.439Z,24.40
2018-05-31T18:42:47.273Z,24.40
2018-05-31T18:45:14.148Z,24.30
2018-05-31T18:47:40.251Z,24.30
2018-05-31T18:50:07.074Z,24.20
2018-05-31T18:52:33.291Z,24.10
2018-05-31T18:54:59.408Z,24.10
2018-05-31T18:57:25.586Z,24.00
2018-05-31T18:59:52.551Z,23.90
2018-05-31T19:02:18.665Z,23.80
2018-05-31T19:04:44.762Z,23.80
2018-05-31T19:07:10.996Z,23.70
2018-05-31T19:09:37.833Z,23.50
2018-05-31T19:12:07.385Z,23.50
2018-05-31T19:14:33.490Z,23.50
2018-05-31T19:17:00.349Z,23.50
2018-05-31T19:19:32.579Z,23.50
2018-05-31T19:21:58.705Z,23.30
2018-05-31T19:24:31.235Z,23.10
2018-05-31T19:26:57.339Z,22.80
2018-05-31T19:29:23.463Z,22.80
2018-05-31T19:31:49.597Z,22.70
2018-05-31T19:34:15.731Z,22.70
2018-05-31T19:36:47.911Z,22.80
2018-05-31T19:39:14.040Z,22.80
2018-05-31T19:41:40.336Z,22.70
2018-05-31T19:44:13.177Z,22.70
2018-05-31T19:46:42.025Z,22.70
2018-05-31T19:49:08.331Z,22.60
2018-05-31T19:51:40.987Z,22.60
2018-05-31T19:54:07.258Z,22.50
2018-05-31T19:56:33.574Z,22.40
2018-05-31T19:59:06.623Z,22.20
2018-05-31T20:01:39.012Z,22.20
2018-05-31T20:04:05.269Z,22.20
2018-05-31T20:06:32.138Z,22.00
2018-05-31T20:08:58.991Z,22.00
2018-05-31T20:11:25.190Z,22.10
2018-05-31T20:13:51.420Z,22.00
2018-05-31T20:16:17.675Z,21.90
2018-05-31T20:18:44.067Z,21.90
2018-05-31T20:21:11.283Z,22.00
2018-05-31T20:23:37.442Z,21.90
2018-05-31T20:26:04.326Z,21.90
2018-05-31T20:28:30.459Z,21.90
2018-05-31T20:30:56.709Z,21.90
2018-05-31T20:33:22.770Z,22.00
2018-05-31T20:35:49.719Z,21.90
2018-05-31T20:38:16.723Z,21.90
2018-05-31T20:40:42.908Z,21.80
2018-05-31T20:43:09.051Z,21.90
2018-05-31T20:45:35.244Z,21.80
2018-05-31T20:48:02.245Z,21.80
2018-05-31T20:50:28.445Z,21.70
2018-05-31T20:52:54.787Z,21.70
2018-05-31T20:55:20.910Z,21.30
2018-05-31T20:57:47.159Z,21.30
2018-05-31T21:00:14.108Z,21.30
2018-05-31T21:02:40.300Z,21.30
2018-05-31T21:05:06.646Z,21.30
2018-05-31T21:07:32.868Z,21.30
2018-05-31T21:09:59.051Z,21.20
2018-05-31T21:12:25.926Z,21.10
2018-05-31T21:14:53.310Z,21.10
2018-05-31T21:17:19.538Z,21.00
2018-05-31T21:19:45.675Z,21.10
2018-05-31T21:22:11.846Z,21.30
2018-05-31T21:24:38.938Z,21.20
2018-05-31T21:27:05.085Z,21.20
2018-05-31T21:29:31.227Z,21.10
2018-05-31T21:31:57.384Z,21.20
2018-05-31T21:34:24.240Z,21.20
2018-05-31T21:36:50.422Z,21.10
2018-05-31T21:39:16.548Z,21.20
2018-05-31T21:41:42.657Z,21.10
2018-05-31T21:44:08.786Z,21.20
2018-05-31T21:46:34.889Z,21.10
2018-05-31T21:49:01.055Z,21.00
2018-05-31T21:51:27.686Z,20.90
2018-05-31T21:53:53.789Z,21.10
2018-05-31T21:56:19.889Z,21.20
2018-05-31T21:58:45.996Z,21.30
2018-05-31T22:01:12.912Z,21.30
2018-05-31T22:03:39.022Z,21.30
2018-05-31T22:06:05.241Z,21.40
2018-05-31T22:08:31.337Z,21.40
2018-05-31T22:10:58.177Z,21.40
2018-05-31T22:13:24.633Z,21.40
2018-05-31T22:15:50.741Z,21.40
2018-05-31T22:18:16.830Z,21.40
2018-05-31T22:20:42.949Z,21.40
2018-05-31T22:23:09.054Z,21.50
2018-05-31T22:25:35.250Z,21.50
2018-05-31T22:28:01.426Z,21.40
2018-05-31T22:30:27.528Z,21.30
2018-05-31T22:32:53.631Z,21.30
2018-05-31T22:35:19.871Z,21.20
2018-05-31T22:37:45.978Z,21.30
2018-05-31T22:40:12.839Z,21.10
2018-05-31T22:42:38.998Z,21.10
2018-05-31T22:45:05.091Z,21.10
2018-05-31T22:47:31.262Z,21.20
2018-05-31T22:49:57.339Z,21.20
2018-05-31T22:52:23.452Z,21.10
2018-05-31T22:54:50.298Z,21.10
2018-05-31T22:57:16.410Z,21.10
2018-05-31T22:59:43.242Z,21.10
2018-05-31T23:02:09.543Z,21.10
2018-05-31T23:04:35.642Z,21.10
2018-05-31T23:07:01.739Z,21.20
2018-05-31T23:09:28.650Z,21.10
2018-05-31T23:11:54.759Z,21.10
2018-05-31T23:14:20.849Z,21.10
2018-05-31T23:16:46.934Z,21.20
2018-05-31T23:19:13.141Z,21.10
2018-05-31T23:21:39.970Z,20.90
2018-05-31T23:24:06.103Z,20.90
2018-05-31T23:26:32.217Z,20.90
2018-05-31T23:28:58.354Z,20.90
2018-05-31T23:31:24.451Z,21.00
2018-05-31T23:33:50.665Z,21.00
2018-05-31T23:36:17.562Z,21.00
2018-05-31T23:38:43.674Z,21.00
2018-05-31T23:41:09.912Z,21.00
2018-05-31T23:43:36.061Z,21.00
2018-05-31T23:46:02.150Z,21.00
2018-05-31T23:48:28.257Z,21.00
2018-05-31T23:50:54.370Z,21.10
2018-05-31T23:53:20.634Z,21.10
2018-05-31T23:55:46.730Z,21.10
2018-05-31T23:58:13.633Z,20.90
